sensor_id;sensor_type;location;lat;lon;timestamp;pressure;altitude;pressure_sealevel;temperature;humidity
72855;BME280;60991;51.278;22.550;2023-04-08T00:00:21;99638.81;;;6.50;65.38
72855;BME280;60991;51.278;22.550;2023-04-08T00:01:51;99631.53;;;6.45;65.11
72855;BME280;60991;51.278;22.550;2023-04-08T00:03:21;99635.00;;;6.46;65.58
72855;BME280;60991;51.278;22.550;2023-04-08T00:04:51;99635.19;;;6.44;65.70
72855;BME280;60991;51.278;22.550;2023-04-08T00:06:22;99643.31;;;6.43;65.61
72855;BME280;60991;51.278;22.550;2023-04-08T00:07:52;99642.69;;;6.41;65.64
72855;BME280;60991;51.278;22.550;2023-04-08T00:09:22;99645.53;;;6.39;65.56
72855;BME280;60991;51.278;22.550;2023-04-08T00:10:52;99646.53;;;6.38;65.59
72855;BME280;60991;51.278;22.550;2023-04-08T00:12:23;99642.28;;;6.37;66.01
72855;BME280;60991;51.278;22.550;2023-04-08T00:13:53;99640.47;;;6.38;65.90
72855;BME280;60991;51.278;22.550;2023-04-08T00:15:23;99651.22;;;6.36;65.58
72855;BME280;60991;51.278;22.550;2023-04-08T00:16:54;99645.94;;;6.36;65.73
72855;BME280;60991;51.278;22.550;2023-04-08T00:18:24;99646.94;;;6.35;66.33
72855;BME280;60991;51.278;22.550;2023-04-08T00:19:54;99653.63;;;6.31;66.22
72855;BME280;60991;51.278;22.550;2023-04-08T00:21:24;99653.88;;;6.30;65.88
72855;BME280;60991;51.278;22.550;2023-04-08T00:22:54;99651.44;;;6.28;66.23
72855;BME280;60991;51.278;22.550;2023-04-08T00:24:25;99655.06;;;6.27;66.25
72855;BME280;60991;51.278;22.550;2023-04-08T00:25:55;99652.44;;;6.27;66.33
72855;BME280;60991;51.278;22.550;2023-04-08T00:27:25;99652.44;;;6.27;66.41
72855;BME280;60991;51.278;22.550;2023-04-08T00:28:55;99656.09;;;6.26;66.09
72855;BME280;60991;51.278;22.550;2023-04-08T00:30:25;99657.09;;;6.25;66.11
72855;BME280;60991;51.278;22.550;2023-04-08T00:31:56;99652.84;;;6.24;66.40
72855;BME280;60991;51.278;22.550;2023-04-08T00:33:26;99660.94;;;6.22;66.26
72855;BME280;60991;51.278;22.550;2023-04-08T00:34:56;99656.06;;;6.19;66.36
72855;BME280;60991;51.278;22.550;2023-04-08T00:36:26;99665.59;;;6.20;66.48
72855;BME280;60991;51.278;22.550;2023-04-08T00:37:56;99662.16;;;6.20;66.70
72855;BME280;60991;51.278;22.550;2023-04-08T00:39:27;99657.28;;;6.17;66.71
72855;BME280;60991;51.278;22.550;2023-04-08T00:40:57;99659.72;;;6.18;66.18
72855;BME280;60991;51.278;22.550;2023-04-08T00:42:27;99657.28;;;6.17;66.29
72855;BME280;60991;51.278;22.550;2023-04-08T00:43:57;99657.50;;;6.15;66.34
72855;BME280;60991;51.278;22.550;2023-04-08T00:45:28;99659.31;;;6.15;66.59
72855;BME280;60991;51.278;22.550;2023-04-08T00:46:58;99652.41;;;6.14;66.08
72855;BME280;60991;51.278;22.550;2023-04-08T00:48:28;99649.59;;;6.15;66.54
72855;BME280;60991;51.278;22.550;2023-04-08T00:49:58;99654.66;;;6.10;66.76
72855;BME280;60991;51.278;22.550;2023-04-08T00:51:29;99654.47;;;6.12;66.22
72855;BME280;60991;51.278;22.550;2023-04-08T00:52:59;99653.84;;;6.10;66.44
72855;BME280;60991;51.278;22.550;2023-04-08T00:54:30;99653.25;;;6.08;66.71
72855;BME280;60991;51.278;22.550;2023-04-08T00:56:00;99657.69;;;6.07;66.85
72855;BME280;60991;51.278;22.550;2023-04-08T00:57:31;99656.88;;;6.07;67.24
72855;BME280;60991;51.278;22.550;2023-04-08T00:59:06;99657.09;;;6.05;67.26
72855;BME280;60991;51.278;22.550;2023-04-08T01:00:39;99656.88;;;6.07;67.06
72855;BME280;60991;51.278;22.550;2023-04-08T01:02:26;99660.13;;;6.02;67.46
72855;BME280;60991;51.278;22.550;2023-04-08T01:05:55;99659.09;;;6.03;67.29
72855;BME280;60991;51.278;22.550;2023-04-08T01:07:49;99665.59;;;6.01;67.64
72855;BME280;60991;51.278;22.550;2023-04-08T01:09:22;99667.59;;;5.99;67.45
72855;BME280;60991;51.278;22.550;2023-04-08T01:10:58;99667.81;;;5.97;67.61
72855;BME280;60991;51.278;22.550;2023-04-08T01:12:31;99672.25;;;5.97;67.50
72855;BME280;60991;51.278;22.550;2023-04-08T01:14:04;99667.00;;;5.97;67.51
72855;BME280;60991;51.278;22.550;2023-04-08T01:15:36;99673.06;;;5.97;67.63
72855;BME280;60991;51.278;22.550;2023-04-08T01:17:07;99673.69;;;5.99;67.59
72855;BME280;60991;51.278;22.550;2023-04-08T01:18:40;99667.00;;;5.97;67.66
72855;BME280;60991;51.278;22.550;2023-04-08T01:20:13;99674.91;;;5.97;67.26
72855;BME280;60991;51.278;22.550;2023-04-08T01:21:44;99676.09;;;5.94;67.70
72855;BME280;60991;51.278;22.550;2023-04-08T01:25:00;99674.66;;;5.85;67.67
72855;BME280;60991;51.278;22.550;2023-04-08T01:26:32;99676.28;;;5.86;67.68
72855;BME280;60991;51.278;22.550;2023-04-08T01:28:14;99678.06;;;5.79;68.17
72855;BME280;60991;51.278;22.550;2023-04-08T01:29:47;99678.88;;;5.79;67.87
72855;BME280;60991;51.278;22.550;2023-04-08T01:31:18;99678.88;;;5.79;67.50
72855;BME280;60991;51.278;22.550;2023-04-08T01:32:49;99678.28;;;5.77;67.55
72855;BME280;60991;51.278;22.550;2023-04-08T01:34:21;99676.06;;;5.74;67.95
72855;BME280;60991;51.278;22.550;2023-04-08T01:35:52;99682.34;;;5.73;67.65
72855;BME280;60991;51.278;22.550;2023-04-08T01:37:24;99679.47;;;5.68;67.93
72855;BME280;60991;51.278;22.550;2023-04-08T01:38:59;99680.66;;;5.59;68.29
72855;BME280;60991;51.278;22.550;2023-04-08T01:40:32;99674.38;;;5.60;68.52
72855;BME280;60991;51.278;22.550;2023-04-08T01:42:03;99682.06;;;5.62;68.20
72855;BME280;60991;51.278;22.550;2023-04-08T01:43:34;99682.06;;;5.62;68.31
72855;BME280;60991;51.278;22.550;2023-04-08T01:45:06;99678.81;;;5.60;68.36
72855;BME280;60991;51.278;22.550;2023-04-08T01:46:38;99674.38;;;5.60;68.02
72855;BME280;60991;51.278;22.550;2023-04-08T01:48:11;99673.75;;;5.58;68.04
72855;BME280;60991;51.278;22.550;2023-04-08T01:49:42;99671.34;;;5.56;68.39
72855;BME280;60991;51.278;22.550;2023-04-08T01:51:14;99685.72;;;5.54;68.62
72855;BME280;60991;51.278;22.550;2023-04-08T01:52:46;99675.38;;;5.52;68.46
72855;BME280;60991;51.278;22.550;2023-04-08T01:54:17;99676.81;;;5.55;68.34
72855;BME280;60991;51.278;22.550;2023-04-08T01:55:52;99680.03;;;5.50;68.59
72855;BME280;60991;51.278;22.550;2023-04-08T01:57:27;99680.03;;;5.57;68.54
72855;BME280;60991;51.278;22.550;2023-04-08T01:58:59;99682.88;;;5.55;67.78
72855;BME280;60991;51.278;22.550;2023-04-08T02:00:30;99685.09;;;5.52;68.15
72855;BME280;60991;51.278;22.550;2023-04-08T02:02:04;99690.09;;;5.40;68.93
72855;BME280;60991;51.278;22.550;2023-04-08T02:03:36;99684.63;;;5.35;69.19
72855;BME280;60991;51.278;22.550;2023-04-08T02:05:07;99691.69;;;5.28;69.41
72855;BME280;60991;51.278;22.550;2023-04-08T02:06:38;99686.66;;;5.33;68.97
72855;BME280;60991;51.278;22.550;2023-04-08T02:08:08;99684.22;;;5.38;68.66
72855;BME280;60991;51.278;22.550;2023-04-08T02:09:38;99678.72;;;5.27;69.47
72855;BME280;60991;51.278;22.550;2023-04-08T02:11:08;99684.97;;;5.26;69.58
72855;BME280;60991;51.278;22.550;2023-04-08T02:12:38;99686.41;;;5.28;69.65
72855;BME280;60991;51.278;22.550;2023-04-08T02:14:09;99683.78;;;5.28;69.47
72855;BME280;60991;51.278;22.550;2023-04-08T02:15:41;99683.78;;;5.28;69.07
72855;BME280;60991;51.278;22.550;2023-04-08T02:17:24;99687.81;;;5.24;69.13
72855;BME280;60991;51.278;22.550;2023-04-08T02:18:58;99690.25;;;5.26;69.18
72855;BME280;60991;51.278;22.550;2023-04-08T02:20:34;99689.41;;;5.18;69.37
72855;BME280;60991;51.278;22.550;2023-04-08T02:22:11;99689.81;;;5.22;69.31
72855;BME280;60991;51.278;22.550;2023-04-08T02:23:47;99693.31;;;5.29;68.87
72855;BME280;60991;51.278;22.550;2023-04-08T02:25:22;99691.69;;;5.28;68.96
72855;BME280;60991;51.278;22.550;2023-04-08T02:26:53;99695.50;;;5.26;69.11
72855;BME280;60991;51.278;22.550;2023-04-08T02:28:25;99692.63;;;5.14;69.71
72855;BME280;60991;51.278;22.550;2023-04-08T02:29:58;99689.81;;;5.15;69.46
72855;BME280;60991;51.278;22.550;2023-04-08T02:31:30;99697.50;;;5.17;69.54
72855;BME280;60991;51.278;22.550;2023-04-08T02:33:03;99681.84;;;5.09;69.80
72855;BME280;60991;51.278;22.550;2023-04-08T02:34:34;99693.25;;;5.16;69.84
72855;BME280;60991;51.278;22.550;2023-04-08T02:36:05;99688.41;;;5.19;69.56
72855;BME280;60991;51.278;22.550;2023-04-08T02:37:36;99696.94;;;5.28;68.97
72855;BME280;60991;51.278;22.550;2023-04-08T02:39:07;99686.03;;;5.31;69.00
72855;BME280;60991;51.278;22.550;2023-04-08T02:40:37;99687.47;;;5.34;68.56
72855;BME280;60991;51.278;22.550;2023-04-08T02:42:07;99693.16;;;5.37;68.34
72855;BME280;60991;51.278;22.550;2023-04-08T02:43:37;99682.00;;;5.35;68.62
72855;BME280;60991;51.278;22.550;2023-04-08T02:45:08;99677.75;;;5.34;68.76
72855;BME280;60991;51.278;22.550;2023-04-08T02:46:38;99682.00;;;5.35;68.62
72855;BME280;60991;51.278;22.550;2023-04-08T02:48:09;99684.44;;;5.37;68.69
72855;BME280;60991;51.278;22.550;2023-04-08T02:49:39;99684.63;;;5.42;68.39
72855;BME280;60991;51.278;22.550;2023-04-08T02:51:09;99684.63;;;5.42;68.59
72855;BME280;60991;51.278;22.550;2023-04-08T02:52:39;99689.47;;;5.38;68.95
72855;BME280;60991;51.278;22.550;2023-04-08T02:54:10;99689.28;;;5.40;68.38
72855;BME280;60991;51.278;22.550;2023-04-08T02:55:40;99698.00;;;5.40;68.34
72855;BME280;60991;51.278;22.550;2023-04-08T02:57:10;99697.59;;;5.37;68.55
72855;BME280;60991;51.278;22.550;2023-04-08T02:58:40;99694.34;;;5.35;68.86
72855;BME280;60991;51.278;22.550;2023-04-08T03:00:11;99692.91;;;5.32;68.78
72855;BME280;60991;51.278;22.550;2023-04-08T03:01:42;99694.94;;;5.30;68.67
72855;BME280;60991;51.278;22.550;2023-04-08T03:03:12;99692.50;;;5.29;68.43
72855;BME280;60991;51.278;22.550;2023-04-08T03:04:42;99695.13;;;5.29;68.81
72855;BME280;60991;51.278;22.550;2023-04-08T03:06:12;99690.44;;;5.24;68.75
72855;BME280;60991;51.278;22.550;2023-04-08T03:07:43;99695.06;;;5.22;68.97
72855;BME280;60991;51.278;22.550;2023-04-08T03:09:13;99686.78;;;5.25;68.67
72855;BME280;60991;51.278;22.550;2023-04-08T03:10:43;99692.00;;;5.12;68.95
72855;BME280;60991;51.278;22.550;2023-04-08T03:12:13;99688.13;;;5.08;68.82
72855;BME280;60991;51.278;22.550;2023-04-08T03:13:43;99695.63;;;5.11;69.04
72855;BME280;60991;51.278;22.550;2023-04-08T03:15:14;99695.44;;;5.12;68.80
72855;BME280;60991;51.278;22.550;2023-04-08T03:16:44;99694.44;;;5.13;69.00
72855;BME280;60991;51.278;22.550;2023-04-08T03:18:14;99690.41;;;5.17;68.84
72855;BME280;60991;51.278;22.550;2023-04-08T03:19:44;99699.69;;;5.13;68.79
72855;BME280;60991;51.278;22.550;2023-04-08T03:21:14;99695.06;;;5.15;68.82
72855;BME280;60991;51.278;22.550;2023-04-08T03:22:45;99696.50;;;5.18;68.13
72855;BME280;60991;51.278;22.550;2023-04-08T03:24:15;99692.06;;;5.18;68.56
72855;BME280;60991;51.278;22.550;2023-04-08T03:25:45;99691.22;;;5.18;68.27
72855;BME280;60991;51.278;22.550;2023-04-08T03:27:15;99692.44;;;5.15;68.76
72855;BME280;60991;51.278;22.550;2023-04-08T03:28:45;99688.88;;;4.95;69.00
72855;BME280;60991;51.278;22.550;2023-04-08T03:30:16;99690.69;;;4.95;68.98
72855;BME280;60991;51.278;22.550;2023-04-08T03:31:46;99689.63;;;4.89;69.43
72855;BME280;60991;51.278;22.550;2023-04-08T03:33:16;99692.06;;;4.91;69.49
72855;BME280;60991;51.278;22.550;2023-04-08T03:34:50;99695.13;;;4.94;69.23
72855;BME280;60991;51.278;22.550;2023-04-08T03:36:20;99702.03;;;4.95;69.07
72855;BME280;60991;51.278;22.550;2023-04-08T03:37:50;99694.84;;;4.82;69.50
72855;BME280;60991;51.278;22.550;2023-04-08T03:39:20;99695.34;;;4.65;70.24
72855;BME280;60991;51.278;22.550;2023-04-08T03:40:51;99696.97;;;4.66;70.19
72855;BME280;60991;51.278;22.550;2023-04-08T03:42:21;99695.34;;;4.65;70.49
72855;BME280;60991;51.278;22.550;2023-04-08T03:43:51;99695.75;;;4.62;70.27
72855;BME280;60991;51.278;22.550;2023-04-08T03:45:21;99698.59;;;4.67;69.87
72855;BME280;60991;51.278;22.550;2023-04-08T03:46:52;99700.91;;;4.76;69.65
72855;BME280;60991;51.278;22.550;2023-04-08T03:48:22;99707.22;;;4.82;69.50
72855;BME280;60991;51.278;22.550;2023-04-08T03:49:52;99706.16;;;4.76;69.58
72855;BME280;60991;51.278;22.550;2023-04-08T03:51:23;99706.78;;;4.78;69.27
72855;BME280;60991;51.278;22.550;2023-04-08T03:52:53;99703.16;;;4.79;69.51
72855;BME280;60991;51.278;22.550;2023-04-08T03:54:23;99713.25;;;4.82;69.61
72855;BME280;60991;51.278;22.550;2023-04-08T03:55:55;99722.59;;;4.85;68.85
72855;BME280;60991;51.278;22.550;2023-04-08T03:57:25;99714.28;;;4.81;69.05
72855;BME280;60991;51.278;22.550;2023-04-08T03:58:55;99726.84;;;4.86;69.23
72855;BME280;60991;51.278;22.550;2023-04-08T04:00:25;99720.38;;;4.88;68.95
72855;BME280;60991;51.278;22.550;2023-04-08T04:01:55;99729.72;;;4.91;68.89
72855;BME280;60991;51.278;22.550;2023-04-08T04:03:26;99720.00;;;4.92;69.11
72855;BME280;60991;51.278;22.550;2023-04-08T04:04:56;99721.44;;;4.94;68.67
72855;BME280;60991;51.278;22.550;2023-04-08T04:06:26;99733.41;;;4.97;68.86
72855;BME280;60991;51.278;22.550;2023-04-08T04:07:56;99730.41;;;5.00;68.78
72855;BME280;60991;51.278;22.550;2023-04-08T04:09:26;99733.44;;;5.03;68.52
72855;BME280;60991;51.278;22.550;2023-04-08T04:10:58;99730.59;;;5.05;68.65
72855;BME280;60991;51.278;22.550;2023-04-08T04:12:28;99736.31;;;5.08;68.52
72855;BME280;60991;51.278;22.550;2023-04-08T04:13:58;99725.97;;;5.07;68.64
72855;BME280;60991;51.278;22.550;2023-04-08T04:15:28;99734.47;;;5.09;68.62
72855;BME280;60991;51.278;22.550;2023-04-08T04:16:59;99740.75;;;5.08;68.57
72855;BME280;60991;51.278;22.550;2023-04-08T04:18:29;99741.56;;;5.08;68.84
72855;BME280;60991;51.278;22.550;2023-04-08T04:19:59;99738.75;;;5.10;68.46
72855;BME280;60991;51.278;22.550;2023-04-08T04:21:29;99737.50;;;5.06;68.89
72855;BME280;60991;51.278;22.550;2023-04-08T04:22:59;99743.13;;;5.03;69.06
72855;BME280;60991;51.278;22.550;2023-04-08T04:24:29;99745.38;;;5.06;68.92
72855;BME280;60991;51.278;22.550;2023-04-08T04:26:00;99747.81;;;5.07;68.85
72855;BME280;60991;51.278;22.550;2023-04-08T04:27:30;99752.53;;;5.12;69.00
72855;BME280;60991;51.278;22.550;2023-04-08T04:29:00;99748.88;;;5.13;69.30
72855;BME280;60991;51.278;22.550;2023-04-08T04:30:30;99756.97;;;5.11;68.84
72855;BME280;60991;51.278;22.550;2023-04-08T04:32:00;99755.72;;;5.07;69.58
72855;BME280;60991;51.278;22.550;2023-04-08T04:33:31;99751.63;;;4.98;69.75
72855;BME280;60991;51.278;22.550;2023-04-08T04:35:01;99753.84;;;5.01;69.45
72855;BME280;60991;51.278;22.550;2023-04-08T04:36:31;99759.34;;;5.06;69.50
72855;BME280;60991;51.278;22.550;2023-04-08T04:38:01;99759.59;;;5.11;69.42
72855;BME280;60991;51.278;22.550;2023-04-08T04:39:32;99763.88;;;5.12;68.99
72855;BME280;60991;51.278;22.550;2023-04-08T04:41:02;99764.63;;;5.06;69.56
72855;BME280;60991;51.278;22.550;2023-04-08T04:42:32;99764.00;;;5.04;69.34
72855;BME280;60991;51.278;22.550;2023-04-08T04:44:02;99761.19;;;5.06;69.83
72855;BME280;60991;51.278;22.550;2023-04-08T04:45:32;99762.81;;;5.07;69.83
72855;BME280;60991;51.278;22.550;2023-04-08T04:47:03;99763.81;;;5.06;69.68
72855;BME280;60991;51.278;22.550;2023-04-08T04:48:36;99763.03;;;5.12;69.76
72855;BME280;60991;51.278;22.550;2023-04-08T04:50:06;99766.13;;;5.22;69.37
72855;BME280;60991;51.278;22.550;2023-04-08T04:51:37;99770.81;;;5.27;69.58
72855;BME280;60991;51.278;22.550;2023-04-08T04:53:07;99770.25;;;5.31;69.29
72855;BME280;60991;51.278;22.550;2023-04-08T04:54:37;99780.22;;;5.36;69.40
72855;BME280;60991;51.278;22.550;2023-04-08T04:56:07;99781.63;;;5.38;68.88
72855;BME280;60991;51.278;22.550;2023-04-08T04:57:37;99776.75;;;5.35;69.97
72855;BME280;60991;51.278;22.550;2023-04-08T04:59:08;99783.47;;;5.38;69.64
72855;BME280;60991;51.278;22.550;2023-04-08T05:00:38;99784.88;;;5.40;69.38
72855;BME280;60991;51.278;22.550;2023-04-08T05:02:08;99784.28;;;5.45;69.36
72855;BME280;60991;51.278;22.550;2023-04-08T05:03:38;99791.22;;;5.52;69.43
72855;BME280;60991;51.278;22.550;2023-04-08T05:05:08;99790.22;;;5.53;69.41
72855;BME280;60991;51.278;22.550;2023-04-08T05:06:39;99791.25;;;5.59;69.93
72855;BME280;60991;51.278;22.550;2023-04-08T05:08:09;99792.25;;;5.51;69.64
72855;BME280;60991;51.278;22.550;2023-04-08T05:09:39;99797.06;;;5.48;70.27
72855;BME280;60991;51.278;22.550;2023-04-08T05:11:10;99794.69;;;5.60;69.94
72855;BME280;60991;51.278;22.550;2023-04-08T05:12:40;99792.25;;;5.58;70.67
72855;BME280;60991;51.278;22.550;2023-04-08T05:14:10;99790.84;;;5.55;70.85
72855;BME280;60991;51.278;22.550;2023-04-08T05:15:40;99791.88;;;5.61;70.93
72855;BME280;60991;51.278;22.550;2023-04-08T05:17:10;99793.94;;;5.66;70.49
72855;BME280;60991;51.278;22.550;2023-04-08T05:18:41;99801.63;;;5.67;71.08
72855;BME280;60991;51.278;22.550;2023-04-08T05:20:11;99796.78;;;5.71;70.75
72855;BME280;60991;51.278;22.550;2023-04-08T05:21:41;99800.44;;;5.70;70.33
72855;BME280;60991;51.278;22.550;2023-04-08T05:23:12;99804.03;;;5.62;71.24
72855;BME280;60991;51.278;22.550;2023-04-08T05:24:42;99803.88;;;5.70;71.27
72855;BME280;60991;51.278;22.550;2023-04-08T05:26:12;99808.16;;;5.71;70.87
72855;BME280;60991;51.278;22.550;2023-04-08T05:27:42;99809.28;;;5.62;71.54
72855;BME280;60991;51.278;22.550;2023-04-08T05:29:13;99814.38;;;5.64;71.65
72855;BME280;60991;51.278;22.550;2023-04-08T05:30:48;99814.22;;;5.72;71.20
72855;BME280;60991;51.278;22.550;2023-04-08T05:32:18;99820.16;;;5.87;70.63
72855;BME280;60991;51.278;22.550;2023-04-08T05:33:48;99822.06;;;5.93;70.81
72855;BME280;60991;51.278;22.550;2023-04-08T05:35:18;99820.75;;;5.82;70.88
72855;BME280;60991;51.278;22.550;2023-04-08T05:36:49;99819.34;;;5.86;71.09
72855;BME280;60991;51.278;22.550;2023-04-08T05:38:19;99818.63;;;5.93;70.93
72855;BME280;60991;51.278;22.550;2023-04-08T05:39:49;99822.06;;;5.93;71.12
72855;BME280;60991;51.278;22.550;2023-04-08T05:41:19;99828.13;;;5.94;70.88
72855;BME280;60991;51.278;22.550;2023-04-08T05:42:50;99822.88;;;6.00;71.08
72855;BME280;60991;51.278;22.550;2023-04-08T05:44:20;99819.00;;;5.96;70.65
72855;BME280;60991;51.278;22.550;2023-04-08T05:45:50;99823.47;;;5.96;70.89
72855;BME280;60991;51.278;22.550;2023-04-08T05:47:20;99824.75;;;6.06;70.61
72855;BME280;60991;51.278;22.550;2023-04-08T05:48:50;99820.50;;;6.12;70.54
72855;BME280;60991;51.278;22.550;2023-04-08T05:50:21;99815.44;;;6.17;70.09
72855;BME280;60991;51.278;22.550;2023-04-08T05:51:51;99822.78;;;6.28;70.32
72855;BME280;60991;51.278;22.550;2023-04-08T05:53:21;99822.16;;;6.26;70.36
72855;BME280;60991;51.278;22.550;2023-04-08T05:54:51;99825.00;;;6.24;70.34
72855;BME280;60991;51.278;22.550;2023-04-08T05:56:22;99819.13;;;6.29;70.70
72855;BME280;60991;51.278;22.550;2023-04-08T05:57:52;99825.41;;;6.35;70.61
72855;BME280;60991;51.278;22.550;2023-04-08T05:59:22;99825.25;;;6.43;70.42
72855;BME280;60991;51.278;22.550;2023-04-08T06:00:52;99823.66;;;6.48;70.02
72855;BME280;60991;51.278;22.550;2023-04-08T06:02:22;99829.13;;;6.47;70.25
72855;BME280;60991;51.278;22.550;2023-04-08T06:03:53;99830.56;;;6.49;70.80
72855;BME280;60991;51.278;22.550;2023-04-08T06:05:23;99827.91;;;6.56;70.88
72855;BME280;60991;51.278;22.550;2023-04-08T06:06:53;99828.53;;;6.58;70.80
72855;BME280;60991;51.278;22.550;2023-04-08T06:08:23;99834.00;;;6.63;70.49
72855;BME280;60991;51.278;22.550;2023-04-08T06:09:54;99828.34;;;6.73;70.45
72855;BME280;60991;51.278;22.550;2023-04-08T06:11:24;99837.47;;;6.77;69.93
72855;BME280;60991;51.278;22.550;2023-04-08T06:12:54;99830.38;;;6.84;70.05
72855;BME280;60991;51.278;22.550;2023-04-08T06:14:24;99834.03;;;6.83;70.13
72855;BME280;60991;51.278;22.550;2023-04-08T06:15:55;99841.94;;;6.89;70.89
72855;BME280;60991;51.278;22.550;2023-04-08T06:17:25;99832.63;;;6.93;70.26
72855;BME280;60991;51.278;22.550;2023-04-08T06:18:55;99829.78;;;7.02;70.45
72855;BME280;60991;51.278;22.550;2023-04-08T06:20:25;99832.81;;;7.05;70.54
72855;BME280;60991;51.278;22.550;2023-04-08T06:21:55;99832.81;;;7.05;70.13
72855;BME280;60991;51.278;22.550;2023-04-08T06:23:26;99832.59;;;7.07;70.88
72855;BME280;60991;51.278;22.550;2023-04-08T06:24:56;99831.81;;;7.13;70.51
72855;BME280;60991;51.278;22.550;2023-04-08T06:26:26;99835.66;;;7.17;70.36
72855;BME280;60991;51.278;22.550;2023-04-08T06:27:56;99830.38;;;7.23;69.95
72855;BME280;60991;51.278;22.550;2023-04-08T06:29:26;99835.06;;;7.21;70.14
72855;BME280;60991;51.278;22.550;2023-04-08T06:30:58;99838.88;;;7.25;69.99
72855;BME280;60991;51.278;22.550;2023-04-08T06:32:28;99837.88;;;7.26;70.85
72855;BME280;60991;51.278;22.550;2023-04-08T06:33:58;99846.22;;;7.23;71.01
72855;BME280;60991;51.278;22.550;2023-04-08T06:35:28;99848.25;;;7.35;70.95
72855;BME280;60991;51.278;22.550;2023-04-08T06:36:59;99844.78;;;7.41;70.77
72855;BME280;60991;51.278;22.550;2023-04-08T06:38:29;99842.31;;;7.46;70.60
72855;BME280;60991;51.278;22.550;2023-04-08T06:39:59;99841.72;;;7.50;70.66
72855;BME280;60991;51.278;22.550;2023-04-08T06:41:29;99834.81;;;7.56;70.52
72855;BME280;60991;51.278;22.550;2023-04-08T06:43:00;99837.03;;;7.59;70.57
72855;BME280;60991;51.278;22.550;2023-04-08T06:44:30;99837.00;;;7.65;70.73
72855;BME280;60991;51.278;22.550;2023-04-08T06:46:00;99835.38;;;7.64;71.12
72855;BME280;60991;51.278;22.550;2023-04-08T06:47:30;99839.44;;;7.67;70.53
72855;BME280;60991;51.278;22.550;2023-04-08T06:49:01;99841.66;;;7.70;70.76
72855;BME280;60991;51.278;22.550;2023-04-08T06:50:31;99840.25;;;7.74;70.59
72855;BME280;60991;51.278;22.550;2023-04-08T06:52:01;99841.88;;;7.75;70.10
72855;BME280;60991;51.278;22.550;2023-04-08T06:53:31;99847.16;;;7.75;69.74
72855;BME280;60991;51.278;22.550;2023-04-08T06:55:02;99835.56;;;7.76;70.32
72855;BME280;60991;51.278;22.550;2023-04-08T06:56:32;99849.75;;;7.82;70.13
72855;BME280;60991;51.278;22.550;2023-04-08T06:58:02;99849.16;;;7.80;70.04
72855;BME280;60991;51.278;22.550;2023-04-08T06:59:32;99855.25;;;7.87;70.08
72855;BME280;60991;51.278;22.550;2023-04-08T07:01:03;99851.38;;;7.89;70.53
72855;BME280;60991;51.278;22.550;2023-04-08T07:02:33;99849.94;;;7.93;70.94
72855;BME280;60991;51.278;22.550;2023-04-08T07:04:03;99855.78;;;8.02;70.40
72855;BME280;60991;51.278;22.550;2023-04-08T07:05:36;99855.59;;;8.04;71.15
72855;BME280;60991;51.278;22.550;2023-04-08T07:07:07;99852.72;;;8.12;70.06
72855;BME280;60991;51.278;22.550;2023-04-08T07:08:37;99859.22;;;8.16;70.08
72855;BME280;60991;51.278;22.550;2023-04-08T07:10:07;99863.09;;;8.13;70.37
72855;BME280;60991;51.278;22.550;2023-04-08T07:11:38;99853.28;;;8.20;69.70
72855;BME280;60991;51.278;22.550;2023-04-08T07:13:08;99853.25;;;8.27;70.08
72855;BME280;60991;51.278;22.550;2023-04-08T07:14:38;99854.69;;;8.29;69.52
72855;BME280;60991;51.278;22.550;2023-04-08T07:16:08;99855.50;;;8.30;70.27
72855;BME280;60991;51.278;22.550;2023-04-08T07:17:38;99859.38;;;8.34;69.64
72855;BME280;60991;51.278;22.550;2023-04-08T07:19:09;99858.94;;;8.37;69.67
72855;BME280;60991;51.278;22.550;2023-04-08T07:20:39;99859.94;;;8.43;69.44
72855;BME280;60991;51.278;22.550;2023-04-08T07:22:09;99856.25;;;8.44;69.67
72855;BME280;60991;51.278;22.550;2023-04-08T07:23:39;99864.16;;;8.50;69.56
72855;BME280;60991;51.278;22.550;2023-04-08T07:25:09;99862.34;;;8.51;69.73
72855;BME280;60991;51.278;22.550;2023-04-08T07:26:40;99866.22;;;8.48;69.68
72855;BME280;60991;51.278;22.550;2023-04-08T07:28:10;99867.41;;;8.52;68.90
72855;BME280;60991;51.278;22.550;2023-04-08T07:29:40;99870.88;;;8.53;69.87
72855;BME280;60991;51.278;22.550;2023-04-08T07:31:16;99860.44;;;8.58;69.85
72855;BME280;60991;51.278;22.550;2023-04-08T07:32:46;99862.47;;;8.62;69.49
72855;BME280;60991;51.278;22.550;2023-04-08T07:34:16;99866.31;;;8.66;68.75
72855;BME280;60991;51.278;22.550;2023-04-08T07:35:46;99862.47;;;8.62;69.42
72855;BME280;60991;51.278;22.550;2023-04-08T07:37:17;99868.31;;;8.71;69.34
72855;BME280;60991;51.278;22.550;2023-04-08T07:38:47;99863.03;;;8.71;68.76
72855;BME280;60991;51.278;22.550;2023-04-08T07:40:17;99869.06;;;8.78;68.81
72855;BME280;60991;51.278;22.550;2023-04-08T07:41:47;99868.66;;;8.81;69.07
72855;BME280;60991;51.278;22.550;2023-04-08T07:43:18;99869.03;;;8.85;68.99
72855;BME280;60991;51.278;22.550;2023-04-08T07:44:48;99868.41;;;8.89;69.27
72855;BME280;60991;51.278;22.550;2023-04-08T07:46:18;99865.09;;;8.94;68.78
72855;BME280;60991;51.278;22.550;2023-04-08T07:47:49;99869.97;;;8.97;68.40
72855;BME280;60991;51.278;22.550;2023-04-08T07:49:19;99877.09;;;8.96;68.47
72855;BME280;60991;51.278;22.550;2023-04-08T07:50:49;99871.97;;;9.01;68.38
72855;BME280;60991;51.278;22.550;2023-04-08T07:52:19;99870.34;;;9.00;68.51
72855;BME280;60991;51.278;22.550;2023-04-08T07:53:49;99867.44;;;9.09;68.72
72855;BME280;60991;51.278;22.550;2023-04-08T07:55:20;99865.75;;;9.14;68.17
72855;BME280;60991;51.278;22.550;2023-04-08T07:56:50;99862.69;;;9.17;68.42
72855;BME280;60991;51.278;22.550;2023-04-08T07:58:20;99861.22;;;9.21;68.16
72855;BME280;60991;51.278;22.550;2023-04-08T07:59:50;99856.91;;;9.27;67.85
72855;BME280;60991;51.278;22.550;2023-04-08T08:01:22;99860.59;;;9.26;67.70
72855;BME280;60991;51.278;22.550;2023-04-08T08:02:52;99871.63;;;9.23;68.07
72855;BME280;60991;51.278;22.550;2023-04-08T08:04:22;99860.94;;;9.29;68.16